Time;durP1;ratioP1;P1;durP2;ratioP2;P2;SDS_P1;SDS_P2;PMS_P1;PMS_P2;Temp;Humidity;BMP_temperature;BMP_pressure;BME280_temperature;BME280_humidity;BME280_pressure;Samples;Min_cycle;Max_cycle;Signal;HPM_P1;HPM_P2
2022/07/20 00:01:25;;;;;;;;;;;27.10;86.00;;;;;;5004630;28;20036;-69
2022/07/20 00:03:51;;;;;;;;;;;27.10;85.90;;;;;;5004354;28;20429;-70
2022/07/20 00:06:18;;;;;;;;;;;27.10;86.00;;;;;;5003069;28;19925;-70
2022/07/20 00:11:29;;;;;;;;;;;27.10;86.20;;;;;;5006394;28;20040;-69
2022/07/20 00:13:57;;;;;;;;;;;27.00;86.30;;;;;;5007546;28;19983;-69
2022/07/20 00:16:26;;;;;;;;;;;27.00;86.40;;;;;;5009877;28;19925;-69
2022/07/20 00:18:53;;;;;;;;;;;27.00;86.30;;;;;;5006724;28;20340;-69
2022/07/20 00:21:20;;;;;;;;;;;27.10;86.30;;;;;;5002669;28;19929;-69
2022/07/20 00:23:47;;;;;;;;;;;27.10;86.30;;;;;;5006166;28;20362;-69
2022/07/20 00:26:14;;;;;;;;;;;27.10;86.20;;;;;;5007760;28;20451;-69
2022/07/20 00:28:41;;;;;;;;;;;27.10;86.20;;;;;;5005291;28;19996;-69
2022/07/20 00:31:07;;;;;;;;;;;27.10;86.10;;;;;;5006954;28;20317;-69
2022/07/20 00:33:36;;;;;;;;;;;27.10;86.10;;;;;;5007064;28;20306;-70
2022/07/20 00:36:03;;;;;;;;;;;27.10;86.30;;;;;;5007266;28;19925;-69
2022/07/20 00:38:29;;;;;;;;;;;27.00;86.10;;;;;;5007220;28;20290;-70
2022/07/20 00:40:56;;;;;;;;;;;27.10;86.00;;;;;;5006394;28;19995;-69
2022/07/20 00:43:23;;;;;;;;;;;27.10;86.10;;;;;;5007318;28;19925;-69
2022/07/20 00:45:50;;;;;;;;;;;27.10;86.10;;;;;;5006261;28;19941;-69
2022/07/20 00:48:16;;;;;;;;;;;27.10;86.00;;;;;;5001778;28;19930;-69
2022/07/20 00:50:45;;;;;;;;;;;27.10;86.10;;;;;;5005167;28;19965;-69
2022/07/20 00:53:11;;;;;;;;;;;27.10;85.70;;;;;;5005678;28;19925;-69
2022/07/20 00:55:38;;;;;;;;;;;27.20;85.90;;;;;;5006500;28;19925;-70
2022/07/20 00:58:05;;;;;;;;;;;27.20;85.80;;;;;;5003847;28;19996;-70
2022/07/20 01:00:32;;;;;;;;;;;27.20;85.80;;;;;;5000674;28;19933;-69
2022/07/20 01:02:59;;;;;;;;;;;27.10;85.90;;;;;;5006888;28;19925;-70
2022/07/20 01:05:25;;;;;;;;;;;27.00;86.00;;;;;;4996236;28;19929;-69
2022/07/20 01:07:53;;;;;;;;;;;27.00;85.90;;;;;;5012772;28;19932;-69
2022/07/20 01:10:20;;;;;;;;;;;27.10;86.00;;;;;;4998479;28;19953;-69
2022/07/20 01:12:47;;;;;;;;;;;27.10;86.00;;;;;;5009844;28;19948;-69
2022/07/20 01:15:14;;;;;;;;;;;27.10;86.00;;;;;;5002924;28;19972;-69
2022/07/20 01:17:41;;;;;;;;;;;27.10;86.00;;;;;;5002834;28;20020;-69
2022/07/20 01:20:11;;;;;;;;;;;27.10;86.00;;;;;;5000039;28;19985;-69
2022/07/20 01:22:39;;;;;;;;;;;27.00;86.00;;;;;;4999438;28;19929;-69
2022/07/20 01:25:06;;;;;;;;;;;27.10;85.90;;;;;;5005600;28;19929;-69
2022/07/20 01:27:33;;;;;;;;;;;27.20;85.90;;;;;;5002222;28;19929;-70
2022/07/20 01:30:00;;;;;;;;;;;27.10;86.10;;;;;;5004072;28;19925;-69
2022/07/20 01:32:27;;;;;;;;;;;27.00;86.20;;;;;;5005704;28;19928;-69
2022/07/20 01:34:53;;;;;;;;;;;27.00;86.10;;;;;;4999521;28;19925;-69
2022/07/20 01:37:20;;;;;;;;;;;27.00;86.10;;;;;;5009008;28;19979;-70
2022/07/20 01:39:48;;;;;;;;;;;27.00;86.30;;;;;;4994469;28;19929;-69
2022/07/20 01:42:15;;;;;;;;;;;26.90;86.30;;;;;;5003996;28;19925;-69
2022/07/20 01:44:42;;;;;;;;;;;27.00;86.40;;;;;;5003286;28;19929;-70
2022/07/20 01:47:08;;;;;;;;;;;27.00;86.40;;;;;;4997795;28;19948;-69
2022/07/20 01:49:36;;;;;;;;;;;27.00;86.50;;;;;;5008038;28;19957;-69
2022/07/20 01:52:05;;;;;;;;;;;26.90;86.50;;;;;;5002344;28;22136;-69
2022/07/20 01:54:31;;;;;;;;;;;27.00;86.50;;;;;;5025938;28;19925;-69
2022/07/20 01:57:00;;;;;;;;;;;27.00;86.80;;;;;;5002638;28;19925;-69
2022/07/20 01:59:26;;;;;;;;;;;26.90;86.90;;;;;;5002320;28;19980;-69
2022/07/20 02:01:53;;;;;;;;;;;27.00;86.80;;;;;;5019144;28;19948;-69
2022/07/20 02:04:20;;;;;;;;;;;27.00;86.80;;;;;;5004423;28;19925;-69
2022/07/20 02:06:47;;;;;;;;;;;26.90;86.90;;;;;;5002475;28;19965;-69
2022/07/20 02:09:13;;;;;;;;;;;26.90;87.20;;;;;;5001478;28;19960;-69
2022/07/20 02:11:40;;;;;;;;;;;26.90;87.20;;;;;;5025988;28;19929;-69
2022/07/20 02:14:08;;;;;;;;;;;26.90;87.30;;;;;;5002381;28;20359;-69
2022/07/20 02:16:35;;;;;;;;;;;26.90;87.20;;;;;;5002244;28;20332;-69
2022/07/20 02:19:02;;;;;;;;;;;26.80;87.40;;;;;;4999388;28;19979;-69
2022/07/20 02:21:29;;;;;;;;;;;26.70;87.80;;;;;;4999782;28;20313;-69
2022/07/20 02:23:57;;;;;;;;;;;26.50;87.90;;;;;;5011790;28;19932;-69
2022/07/20 02:26:24;;;;;;;;;;;26.60;88.10;;;;;;4998184;28;19926;-69
2022/07/20 02:28:50;;;;;;;;;;;26.60;88.40;;;;;;5008915;28;19926;-69
2022/07/20 02:31:19;;;;;;;;;;;26.50;88.50;;;;;;5002569;28;19926;-69
2022/07/20 02:33:46;;;;;;;;;;;26.40;88.90;;;;;;5005237;28;19925;-69
2022/07/20 02:36:13;;;;;;;;;;;26.30;89.00;;;;;;5006189;28;19925;-69
2022/07/20 02:38:40;;;;;;;;;;;26.40;88.10;;;;;;5004152;28;19975;-69
2022/07/20 02:41:07;;;;;;;;;;;26.40;88.60;;;;;;5001539;28;20029;-69
2022/07/20 02:43:34;;;;;;;;;;;26.30;88.70;;;;;;5007445;28;20416;-69
2022/07/20 02:46:01;;;;;;;;;;;26.30;88.70;;;;;;5009434;28;19932;-69
2022/07/20 02:48:29;;;;;;;;;;;26.20;88.80;;;;;;5006674;28;20068;-69
2022/07/20 02:50:56;;;;;;;;;;;26.00;89.00;;;;;;5009156;28;20371;-69
2022/07/20 02:53:23;;;;;;;;;;;26.00;89.40;;;;;;5003704;28;19929;-69
2022/07/20 02:55:49;;;;;;;;;;;25.90;89.60;;;;;;5006883;28;19973;-69
2022/07/20 02:58:16;;;;;;;;;;;25.80;90.00;;;;;;4998446;28;19925;-69
2022/07/20 03:00:43;;;;;;;;;;;25.70;90.20;;;;;;5006718;28;20408;-69
2022/07/20 03:03:10;;;;;;;;;;;25.60;90.40;;;;;;5010845;28;20392;-69
2022/07/20 03:05:38;;;;;;;;;;;25.50;90.60;;;;;;5007078;28;19929;-69
2022/07/20 03:08:07;;;;;;;;;;;25.50;90.20;;;;;;5005391;28;20467;-69
2022/07/20 03:10:34;;;;;;;;;;;25.60;90.10;;;;;;5006643;28;19931;-69
2022/07/20 03:13:00;;;;;;;;;;;25.70;90.10;;;;;;5008623;28;19925;-69
2022/07/20 03:15:27;;;;;;;;;;;25.60;90.30;;;;;;5003268;28;19932;-69
2022/07/20 03:17:54;;;;;;;;;;;25.50;90.20;;;;;;5005005;28;19975;-69
2022/07/20 03:20:22;;;;;;;;;;;25.50;90.40;;;;;;5003839;28;19964;-69
2022/07/20 03:22:51;;;;;;;;;;;25.50;90.40;;;;;;5003007;28;20020;-69
2022/07/20 03:25:17;;;;;;;;;;;25.50;90.60;;;;;;5011420;28;20400;-69
2022/07/20 03:27:44;;;;;;;;;;;25.40;90.60;;;;;;5008106;28;20447;-69
2022/07/20 03:30:11;;;;;;;;;;;25.30;90.80;;;;;;5005822;28;20351;-69
2022/07/20 03:32:38;;;;;;;;;;;25.20;91.10;;;;;;5004936;28;19925;-69
2022/07/20 03:35:06;;;;;;;;;;;25.10;91.60;;;;;;5000846;28;20451;-69
2022/07/20 03:37:32;;;;;;;;;;;25.10;92.20;;;;;;5009638;28;20387;-69
2022/07/20 03:40:01;;;;;;;;;;;25.10;92.50;;;;;;5008078;28;19979;-69
2022/07/20 03:42:27;;;;;;;;;;;24.90;92.90;;;;;;5005127;28;19925;-69
2022/07/20 03:44:54;;;;;;;;;;;24.90;93.40;;;;;;5004274;28;20400;-69
2022/07/20 03:47:21;;;;;;;;;;;24.90;93.70;;;;;;5007144;28;19925;-68
2022/07/20 03:49:48;;;;;;;;;;;24.80;94.00;;;;;;5003810;28;19930;-68
2022/07/20 03:52:15;;;;;;;;;;;24.80;94.30;;;;;;5009633;28;19964;-68
2022/07/20 03:54:42;;;;;;;;;;;24.70;94.90;;;;;;5006330;28;20363;-69
2022/07/20 03:57:10;;;;;;;;;;;24.70;95.20;;;;;;5010563;28;19929;-68
2022/07/20 03:59:37;;;;;;;;;;;24.60;95.40;;;;;;4999575;28;20434;-69
2022/07/20 04:02:04;;;;;;;;;;;24.50;96.10;;;;;;5005245;28;20409;-69
2022/07/20 04:04:31;;;;;;;;;;;24.50;96.70;;;;;;5002099;28;19926;-69
2022/07/20 04:06:57;;;;;;;;;;;24.40;97.40;;;;;;5008017;28;19979;-69
2022/07/20 04:12:05;;;;;;;;;;;24.30;98.70;;;;;;5006992;28;19921;-69
2022/07/20 04:14:34;;;;;;;;;;;24.20;98.70;;;;;;5007626;28;19956;-68
2022/07/20 04:17:01;;;;;;;;;;;;;;;;;;5008439;28;19979;-69
2022/07/20 04:19:27;;;;;;;;;;;24.00;99.50;;;;;;5006430;28;19979;-69
2022/07/20 04:21:55;;;;;;;;;;;24.00;99.90;;;;;;5007451;28;19925;-69
2022/07/20 04:24:22;;;;;;;;;;;23.90;99.90;;;;;;5003644;28;20393;-69
2022/07/20 04:26:48;;;;;;;;;;;23.90;99.90;;;;;;4997325;28;20328;-69
2022/07/20 04:29:15;;;;;;;;;;;23.90;99.90;;;;;;5005150;28;20335;-69
2022/07/20 04:31:43;;;;;;;;;;;23.90;99.90;;;;;;5004643;28;20344;-69
2022/07/20 04:34:10;;;;;;;;;;;23.90;99.90;;;;;;5009511;28;19979;-69
2022/07/20 04:36:37;;;;;;;;;;;23.90;99.90;;;;;;5009749;28;20289;-69
2022/07/20 04:39:04;;;;;;;;;;;23.80;99.90;;;;;;5002972;28;19925;-69
2022/07/20 04:41:31;;;;;;;;;;;23.80;99.90;;;;;;5001507;28;19926;-69
2022/07/20 04:43:57;;;;;;;;;;;23.80;99.90;;;;;;5005714;28;19929;-68
2022/07/20 04:46:24;;;;;;;;;;;23.80;99.90;;;;;;5010195;28;19925;-69
2022/07/20 04:48:52;;;;;;;;;;;23.80;99.90;;;;;;5003533;28;19984;-69
2022/07/20 04:51:19;;;;;;;;;;;23.80;99.90;;;;;;5010235;28;19925;-69
2022/07/20 04:53:46;;;;;;;;;;;23.80;99.90;;;;;;5009252;28;19932;-69
2022/07/20 04:56:13;;;;;;;;;;;23.80;99.90;;;;;;5010005;28;19925;-69
2022/07/20 04:58:40;;;;;;;;;;;23.90;99.90;;;;;;5004438;28;19929;-69
2022/07/20 05:01:07;;;;;;;;;;;23.90;99.90;;;;;;5001169;28;19965;-69
2022/07/20 05:03:34;;;;;;;;;;;24.00;99.90;;;;;;5010061;28;19925;-69
2022/07/20 05:06:02;;;;;;;;;;;24.10;99.90;;;;;;5000234;28;20010;-71
2022/07/20 05:08:29;;;;;;;;;;;24.10;99.90;;;;;;5001507;28;19929;-71
2022/07/20 05:10:56;;;;;;;;;;;24.10;99.90;;;;;;5006808;28;19929;-70
2022/07/20 05:13:22;;;;;;;;;;;24.10;99.90;;;;;;5006613;28;19932;-71
2022/07/20 05:15:49;;;;;;;;;;;24.10;99.90;;;;;;5000170;28;19929;-70
2022/07/20 05:18:16;;;;;;;;;;;24.30;99.90;;;;;;5008070;28;20357;-70
2022/07/20 05:20:43;;;;;;;;;;;24.30;99.90;;;;;;5005052;28;19983;-70
2022/07/20 05:23:11;;;;;;;;;;;24.40;99.90;;;;;;5010832;28;20018;-71
2022/07/20 05:25:39;;;;;;;;;;;24.40;99.90;;;;;;4999523;28;19936;-71
2022/07/20 05:28:06;;;;;;;;;;;24.40;99.90;;;;;;5001795;28;19926;-71
2022/07/20 05:30:33;;;;;;;;;;;24.50;99.90;;;;;;5013275;28;20393;-70
2022/07/20 05:33:00;;;;;;;;;;;24.70;99.90;;;;;;4998017;28;20348;-70
2022/07/20 05:35:27;;;;;;;;;;;24.50;99.90;;;;;;5000219;28;19925;-70
2022/07/20 05:37:54;;;;;;;;;;;24.50;99.90;;;;;;5002995;28;20452;-70
2022/07/20 05:40:22;;;;;;;;;;;24.60;99.90;;;;;;5004206;28;19980;-70
2022/07/20 05:42:49;;;;;;;;;;;24.60;99.90;;;;;;4996537;28;19925;-70
2022/07/20 05:45:15;;;;;;;;;;;24.60;99.90;;;;;;5010879;28;19934;-70
2022/07/20 05:47:42;;;;;;;;;;;24.70;99.90;;;;;;5001961;28;19929;-70
2022/07/20 05:50:09;;;;;;;;;;;24.70;99.90;;;;;;4994808;28;20356;-70
2022/07/20 05:52:36;;;;;;;;;;;24.90;99.90;;;;;;4996497;28;19932;-69
2022/07/20 05:55:03;;;;;;;;;;;24.90;99.90;;;;;;4997972;28;20329;-71
2022/07/20 05:57:31;;;;;;;;;;;25.10;99.90;;;;;;5001157;28;20356;-71
2022/07/20 05:59:58;;;;;;;;;;;25.20;99.90;;;;;;5002430;28;19991;-71
2022/07/20 06:02:24;;;;;;;;;;;25.00;99.90;;;;;;5001484;28;19995;-70
2022/07/20 06:04:51;;;;;;;;;;;25.10;99.90;;;;;;5004246;28;19929;-70
2022/07/20 06:07:18;;;;;;;;;;;25.10;99.90;;;;;;4999970;28;20365;-70
2022/07/20 06:09:45;;;;;;;;;;;25.00;99.90;;;;;;4997871;28;19925;-70
2022/07/20 06:12:12;;;;;;;;;;;24.90;99.90;;;;;;5007366;28;19928;-70
2022/07/20 06:14:40;;;;;;;;;;;25.00;99.90;;;;;;4998568;28;19925;-71
2022/07/20 06:17:07;;;;;;;;;;;25.10;99.90;;;;;;4994130;28;20357;-71
2022/07/20 06:19:33;;;;;;;;;;;25.10;99.90;;;;;;5007521;28;20467;-71
2022/07/20 06:22:00;;;;;;;;;;;25.20;99.90;;;;;;5002790;28;19926;-71
2022/07/20 06:24:27;;;;;;;;;;;25.30;99.90;;;;;;5004074;28;19929;-67
2022/07/20 06:26:54;;;;;;;;;;;25.40;99.90;;;;;;5003617;28;19925;-72
2022/07/20 06:29:21;;;;;;;;;;;25.40;99.90;;;;;;5011688;28;19925;-71
2022/07/20 06:31:50;;;;;;;;;;;25.50;99.90;;;;;;5006742;28;20309;-70
2022/07/20 06:34:16;;;;;;;;;;;25.50;99.90;;;;;;5004063;28;19929;-69
2022/07/20 06:36:45;;;;;;;;;;;25.50;99.90;;;;;;5006457;28;19933;-69
2022/07/20 06:39:12;;;;;;;;;;;25.40;99.90;;;;;;5008881;28;19929;-68
2022/07/20 06:41:39;;;;;;;;;;;25.50;99.90;;;;;;5003071;28;19926;-66
2022/07/20 06:44:10;;;;;;;;;;;25.40;99.90;;;;;;5007270;28;19932;-68
2022/07/20 06:46:37;;;;;;;;;;;25.30;99.90;;;;;;5006394;28;19925;-69
2022/07/20 06:49:06;;;;;;;;;;;25.20;99.90;;;;;;5007978;28;19929;-70
2022/07/20 06:51:33;;;;;;;;;;;25.10;99.90;;;;;;5002031;28;19925;-70
2022/07/20 06:53:59;;;;;;;;;;;25.20;99.90;;;;;;5004869;28;19925;-70
2022/07/20 06:56:26;;;;;;;;;;;25.10;99.90;;;;;;5009676;28;19926;-70
2022/07/20 06:58:53;;;;;;;;;;;25.20;99.90;;;;;;5004189;28;19929;-70
2022/07/20 07:01:20;;;;;;;;;;;25.40;99.90;;;;;;5006931;28;19925;-69
2022/07/20 07:03:47;;;;;;;;;;;25.40;99.90;;;;;;5004372;28;19928;-70
2022/07/20 07:06:16;;;;;;;;;;;25.40;99.90;;;;;;5007459;28;19926;-69
2022/07/20 07:08:43;;;;;;;;;;;25.20;99.90;;;;;;5001368;28;19937;-70
2022/07/20 07:11:10;;;;;;;;;;;25.10;99.90;;;;;;4999199;28;19984;-69
2022/07/20 07:13:37;;;;;;;;;;;24.90;99.90;;;;;;5000764;28;19929;-70
2022/07/20 07:16:03;;;;;;;;;;;25.00;99.90;;;;;;5006812;28;20304;-70
2022/07/20 07:18:30;;;;;;;;;;;24.90;99.90;;;;;;4997164;28;20371;-71
2022/07/20 07:20:57;;;;;;;;;;;24.90;99.90;;;;;;5000633;28;19926;-70
2022/07/20 07:23:25;;;;;;;;;;;25.00;99.90;;;;;;5011403;28;20305;-70
2022/07/20 07:25:52;;;;;;;;;;;24.90;99.90;;;;;;5000710;28;20305;-70
2022/07/20 07:28:19;;;;;;;;;;;25.00;99.90;;;;;;4999458;28;19988;-70
2022/07/20 07:30:45;;;;;;;;;;;25.00;99.90;;;;;;5000686;28;19960;-70
2022/07/20 07:33:12;;;;;;;;;;;25.00;99.90;;;;;;5001502;28;19929;-71
2022/07/20 07:35:39;;;;;;;;;;;24.90;99.90;;;;;;5001797;28;19987;-71
2022/07/20 07:38:06;;;;;;;;;;;24.70;99.90;;;;;;5000351;28;19926;-71
2022/07/20 07:40:34;;;;;;;;;;;24.60;99.90;;;;;;5009603;28;19933;-70
2022/07/20 07:43:01;;;;;;;;;;;24.50;99.90;;;;;;5038520;23;19932;-71
2022/07/20 07:45:27;;;;;;;;;;;24.50;99.90;;;;;;5038362;28;19929;-72
2022/07/20 07:47:54;;;;;;;;;;;24.70;99.90;;;;;;5015098;28;19932;-72
2022/07/20 07:50:21;;;;;;;;;;;24.90;99.90;;;;;;5015825;28;20015;-72
2022/07/20 07:52:48;;;;;;;;;;;25.10;99.90;;;;;;5010938;28;19932;-71
2022/07/20 07:55:15;;;;;;;;;;;25.20;99.90;;;;;;5015363;28;19951;-72
2022/07/20 07:57:43;;;;;;;;;;;25.30;99.90;;;;;;5015634;28;19929;-72
2022/07/20 08:00:10;;;;;;;;;;;25.40;99.90;;;;;;5015059;28;19925;-72
2022/07/20 08:02:40;;;;;;;;;;;25.40;99.90;;;;;;5022076;28;19932;-72
2022/07/20 08:05:07;;;;;;;;;;;25.50;99.90;;;;;;5017105;28;19929;-72
2022/07/20 08:07:36;;;;;;;;;;;25.50;99.90;;;;;;5014672;28;20400;-72
2022/07/20 08:10:03;;;;;;;;;;;25.50;99.90;;;;;;5014962;28;19979;-72
2022/07/20 08:12:30;;;;;;;;;;;25.50;99.90;;;;;;5014942;28;20397;-72
2022/07/20 08:14:58;;;;;;;;;;;25.50;99.90;;;;;;5018153;28;19925;-72
2022/07/20 08:17:25;;;;;;;;;;;25.70;99.90;;;;;;5015444;28;19925;-72
2022/07/20 08:19:52;;;;;;;;;;;25.70;99.90;;;;;;5014532;28;19975;-72
2022/07/20 08:22:19;;;;;;;;;;;25.70;99.90;;;;;;5015181;28;19928;-72
2022/07/20 08:24:46;;;;;;;;;;;25.80;99.90;;;;;;5015134;28;19929;-72
2022/07/20 08:27:12;;;;;;;;;;;25.90;99.90;;;;;;5015072;28;19932;-72
2022/07/20 08:29:39;;;;;;;;;;;26.00;99.90;;;;;;5016120;28;19925;-72
2022/07/20 08:32:07;;;;;;;;;;;25.90;99.90;;;;;;5014299;28;19929;-72
2022/07/20 08:34:34;;;;;;;;;;;25.80;99.90;;;;;;5014787;28;19929;-72
2022/07/20 08:37:02;;;;;;;;;;;25.90;99.90;;;;;;5014577;28;19971;-72
2022/07/20 08:39:28;;;;;;;;;;;26.00;99.90;;;;;;5013775;28;20029;-71
2022/07/20 08:41:55;;;;;;;;;;;25.90;99.90;;;;;;5014219;28;20429;-72
2022/07/20 08:44:22;;;;;;;;;;;25.80;99.90;;;;;;5014484;28;19929;-72
2022/07/20 08:46:49;;;;;;;;;;;25.90;99.90;;;;;;5014485;28;19979;-72
2022/07/20 08:49:17;;;;;;;;;;;26.00;99.90;;;;;;5012069;28;19929;-71
2022/07/20 08:51:44;;;;;;;;;;;26.00;99.90;;;;;;5011511;28;19932;-72
2022/07/20 08:54:11;;;;;;;;;;;26.10;99.90;;;;;;5011563;28;19929;-71
2022/07/20 08:56:37;;;;;;;;;;;26.20;99.90;;;;;;5010183;28;19979;-72
2022/07/20 08:59:04;;;;;;;;;;;26.30;99.90;;;;;;5004978;28;19976;-72
2022/07/20 09:01:31;;;;;;;;;;;26.50;99.90;;;;;;5013285;28;19925;-72
2022/07/20 09:04:08;;;;;;;;;;;26.80;99.90;;;;;;5015105;28;19929;-71
2022/07/20 09:06:36;;;;;;;;;;;26.90;99.90;;;;;;5010136;28;19980;-72
2022/07/20 09:09:05;;;;;;;;;;;27.00;99.90;;;;;;5007309;28;19929;-72
2022/07/20 09:11:31;;;;;;;;;;;27.00;99.90;;;;;;5005965;28;19926;-72
2022/07/20 09:13:58;;;;;;;;;;;26.80;99.90;;;;;;5008297;28;20396;-72
2022/07/20 09:16:32;;;;;;;;;;;26.90;99.90;;;;;;5013808;28;20012;-72
2022/07/20 09:18:59;;;;;;;;;;;27.00;99.90;;;;;;5009801;28;19925;-72
2022/07/20 09:21:28;;;;;;;;;;;27.00;99.90;;;;;;5011076;28;19937;-72
2022/07/20 09:23:57;;;;;;;;;;;27.10;99.90;;;;;;5020175;28;19978;-72
2022/07/20 09:26:25;;;;;;;;;;;27.20;99.90;;;;;;5013687;28;19929;-72
2022/07/20 09:28:52;;;;;;;;;;;27.10;99.90;;;;;;5011576;28;20015;-72
2022/07/20 09:31:19;;;;;;;;;;;27.10;99.90;;;;;;5011232;28;19933;-72
2022/07/20 09:33:50;;;;;;;;;;;27.30;99.90;;;;;;5012857;28;19951;-72
2022/07/20 09:36:17;;;;;;;;;;;27.40;99.90;;;;;;5011567;28;20385;-73
2022/07/20 09:38:44;;;;;;;;;;;27.00;99.90;;;;;;5005910;28;19929;-72
2022/07/20 09:41:23;;;;;;;;;;;27.20;99.90;;;;;;5012273;28;19925;-72
2022/07/20 09:43:50;;;;;;;;;;;27.20;99.90;;;;;;5008252;28;19929;-72
2022/07/20 09:46:17;;;;;;;;;;;27.00;99.90;;;;;;5011481;28;19925;-71
2022/07/20 09:48:45;;;;;;;;;;;27.20;99.90;;;;;;5011979;28;20351;-71
2022/07/20 09:51:19;;;;;;;;;;;27.30;99.90;;;;;;5006092;28;19957;-71
2022/07/20 09:53:46;;;;;;;;;;;27.40;99.90;;;;;;5010345;28;19928;-71
2022/07/20 09:56:15;;;;;;;;;;;27.60;99.90;;;;;;5005678;28;19925;-71
2022/07/20 09:58:45;;;;;;;;;;;27.80;99.90;;;;;;5013031;28;19972;-71
2022/07/20 10:01:12;;;;;;;;;;;27.80;99.90;;;;;;5007512;28;19926;-71
2022/07/20 10:03:39;;;;;;;;;;;27.60;99.90;;;;;;5013337;28;19929;-71
2022/07/20 10:06:06;;;;;;;;;;;27.90;99.90;;;;;;5006515;28;19929;-71
2022/07/20 10:08:33;;;;;;;;;;;27.80;99.90;;;;;;5010060;28;20364;-70
2022/07/20 10:11:00;;;;;;;;;;;27.80;99.90;;;;;;5027055;28;19932;-70
2022/07/20 10:13:27;;;;;;;;;;;27.70;99.90;;;;;;5008941;28;19925;-70
2022/07/20 10:15:59;;;;;;;;;;;27.50;99.90;;;;;;5012499;28;19975;-70
2022/07/20 10:18:26;;;;;;;;;;;27.60;99.90;;;;;;5008548;28;20591;-70
2022/07/20 10:20:53;;;;;;;;;;;27.90;99.90;;;;;;5006736;28;20351;-70
2022/07/20 10:23:29;;;;;;;;;;;28.10;99.90;;;;;;5008623;28;19925;-70
2022/07/20 10:25:57;;;;;;;;;;;28.20;99.90;;;;;;5008457;28;19925;-70
2022/07/20 10:28:28;;;;;;;;;;;28.10;99.90;;;;;;5010668;28;19932;-70
2022/07/20 10:30:57;;;;;;;;;;;28.00;99.90;;;;;;5008629;28;19929;-70
2022/07/20 10:33:24;;;;;;;;;;;28.20;99.90;;;;;;5011605;28;19925;-71
2022/07/20 10:35:51;;;;;;;;;;;28.60;99.90;;;;;;5009813;28;20365;-70
2022/07/20 10:38:18;;;;;;;;;;;28.20;99.90;;;;;;5005358;28;19925;-70
2022/07/20 10:43:44;;;;;;;;;;;29.10;99.90;;;;;;5005663;28;19928;-73
2022/07/20 10:46:25;;;;;;;;;;;29.40;99.90;;;;;;5006994;28;19972;-72
2022/07/20 10:48:53;;;;;;;;;;;29.40;99.90;;;;;;5002632;28;19929;-73
2022/07/20 10:51:21;;;;;;;;;;;29.50;99.90;;;;;;5009700;28;19926;-73
2022/07/20 10:53:47;;;;;;;;;;;29.70;99.90;;;;;;5006053;28;20461;-73
2022/07/20 10:56:14;;;;;;;;;;;29.50;99.90;;;;;;5010245;28;19943;-73
2022/07/20 10:58:42;;;;;;;;;;;29.30;99.90;;;;;;4998598;28;19925;-73
2022/07/20 11:01:10;;;;;;;;;;;29.40;99.90;;;;;;5008621;28;19929;-70
2022/07/20 11:03:38;;;;;;;;;;;29.40;99.90;;;;;;5013358;28;19975;-72
2022/07/20 11:06:08;;;;;;;;;;;29.20;99.90;;;;;;5002080;28;19930;-73
2022/07/20 11:08:35;;;;;;;;;;;29.30;99.90;;;;;;5012416;28;19929;-72
2022/07/20 11:11:02;;;;;;;;;;;29.30;99.90;;;;;;5017808;28;19925;-72
2022/07/20 11:13:29;;;;;;;;;;;29.40;99.90;;;;;;5010015;28;19932;-70
2022/07/20 11:15:57;;;;;;;;;;;29.70;99.90;;;;;;5016494;28;19971;-70
2022/07/20 11:18:24;;;;;;;;;;;29.70;99.90;;;;;;5015484;28;19925;-70
2022/07/20 11:20:52;;;;;;;;;;;29.70;99.90;;;;;;5010584;28;19936;-70
2022/07/20 11:23:21;;;;;;;;;;;29.90;99.90;;;;;;5015812;28;19926;-70
2022/07/20 11:25:49;;;;;;;;;;;30.10;99.90;;;;;;5010115;28;19975;-71
2022/07/20 11:28:21;;;;;;;;;;;29.80;99.90;;;;;;5018177;28;19931;-70
2022/07/20 11:30:48;;;;;;;;;;;30.00;99.90;;;;;;5015764;28;20321;-70
2022/07/20 11:33:21;;;;;;;;;;;29.90;99.90;;;;;;5016088;28;19925;-71
2022/07/20 11:35:48;;;;;;;;;;;29.80;99.90;;;;;;5018520;28;20022;-70
2022/07/20 11:38:15;;;;;;;;;;;30.30;99.90;;;;;;5016015;28;20363;-71
2022/07/20 11:40:55;;;;;;;;;;;30.40;99.90;;;;;;5015894;28;19929;-70
2022/07/20 11:43:22;;;;;;;;;;;30.30;99.90;;;;;;5022065;28;19925;-70
2022/07/20 11:45:48;;;;;;;;;;;30.30;99.90;;;;;;5006625;28;20393;-70
2022/07/20 11:48:16;;;;;;;;;;;30.70;99.90;;;;;;5016580;28;19937;-70
2022/07/20 11:50:43;;;;;;;;;;;30.70;99.90;;;;;;5015424;28;19933;-70
2022/07/20 11:53:22;;;;;;;;;;;30.90;99.90;;;;;;5014477;28;19925;-73
2022/07/20 11:55:50;;;;;;;;;;;31.60;99.90;;;;;;5005588;28;19926;-73
2022/07/20 11:58:23;;;;;;;;;;;33.10;99.90;;;;;;5008937;28;19925;-73
2022/07/20 12:00:50;;;;;;;;;;;34.60;99.90;;;;;;5012357;28;19956;-73
2022/07/20 12:03:17;;;;;;;;;;;35.40;99.90;;;;;;5011690;28;19929;-73
2022/07/20 12:05:44;;;;;;;;;;;35.00;99.90;;;;;;5011093;28;19979;-73
2022/07/20 12:08:11;;;;;;;;;;;34.80;99.50;;;;;;5005759;28;20398;-73
2022/07/20 12:10:38;;;;;;;;;;;34.00;99.90;;;;;;5010951;28;19933;-73
2022/07/20 12:13:07;;;;;;;;;;;34.10;99.70;;;;;;5010024;28;19988;-73
2022/07/20 12:15:34;;;;;;;;;;;34.80;99.50;;;;;;5007349;28;20365;-73
2022/07/20 12:18:01;;;;;;;;;;;35.40;99.20;;;;;;5009460;28;19983;-74
2022/07/20 12:20:29;;;;;;;;;;;35.70;99.10;;;;;;5014376;28;19952;-74
2022/07/20 12:22:56;;;;;;;;;;;35.20;98.80;;;;;;5013584;28;19929;-73
2022/07/20 12:25:34;;;;;;;;;;;35.40;99.10;;;;;;5013347;28;19948;-73
2022/07/20 12:28:01;;;;;;;;;;;36.50;98.20;;;;;;5012662;28;19953;-71
2022/07/20 12:30:29;;;;;;;;;;;37.60;98.00;;;;;;5007261;28;19996;-72
2022/07/20 12:33:04;;;;;;;;;;;38.20;97.50;;;;;;5014441;28;19929;-72
2022/07/20 12:35:30;;;;;;;;;;;38.70;97.10;;;;;;5024641;28;19925;-71
2022/07/20 12:37:57;;;;;;;;;;;39.40;96.60;;;;;;5008702;28;19925;-71
2022/07/20 12:40:32;;;;;;;;;;;39.30;96.20;;;;;;5007486;28;19925;-71
2022/07/20 12:42:59;;;;;;;;;;;39.30;96.30;;;;;;5009303;28;19975;-71
2022/07/20 12:45:25;;;;;;;;;;;38.00;95.90;;;;;;5012816;28;19932;-71
2022/07/20 12:47:54;;;;;;;;;;;36.20;96.20;;;;;;5009503;28;19947;-73
2022/07/20 12:50:20;;;;;;;;;;;35.60;96.80;;;;;;5008597;28;19955;-74
2022/07/20 12:52:47;;;;;;;;;;;35.10;97.10;;;;;;5008221;28;19932;-73
2022/07/20 12:55:14;;;;;;;;;;;35.50;96.90;;;;;;5002697;28;19960;-73
2022/07/20 12:57:41;;;;;;;;;;;36.10;96.80;;;;;;5010022;28;19979;-73
2022/07/20 13:00:08;;;;;;;;;;;37.10;96.40;;;;;;5013702;28;20335;-71
2022/07/20 13:02:35;;;;;;;;;;;37.40;96.10;;;;;;5010894;28;19925;-71
2022/07/20 13:05:03;;;;;;;;;;;37.70;95.40;;;;;;5013491;28;19925;-71
2022/07/20 13:07:30;;;;;;;;;;;38.40;95.00;;;;;;5007917;28;19925;-72
2022/07/20 13:09:57;;;;;;;;;;;38.10;95.00;;;;;;5009356;28;19925;-71
2022/07/20 13:12:25;;;;;;;;;;;38.10;95.00;;;;;;5012855;28;20008;-71
2022/07/20 13:14:52;;;;;;;;;;;37.80;95.10;;;;;;5004084;28;19932;-71
2022/07/20 13:17:18;;;;;;;;;;;36.60;95.50;;;;;;5011412;28;19979;-71
2022/07/20 13:19:48;;;;;;;;;;;35.90;95.80;;;;;;5006865;28;19926;-71
2022/07/20 13:22:16;;;;;;;;;;;36.40;95.80;;;;;;5010849;28;19964;-72
2022/07/20 13:24:43;;;;;;;;;;;36.00;95.40;;;;;;5013071;28;19979;-72
2022/07/20 13:27:10;;;;;;;;;;;36.40;95.40;;;;;;5011549;28;19925;-71
2022/07/20 13:29:36;;;;;;;;;;;36.00;95.00;;;;;;5008626;28;19929;-71
2022/07/20 13:32:03;;;;;;;;;;;36.30;95.50;;;;;;5003876;28;19929;-71
2022/07/20 13:34:30;;;;;;;;;;;36.80;95.20;;;;;;5006121;28;19926;-72
2022/07/20 13:36:57;;;;;;;;;;;36.60;94.70;;;;;;5006277;28;19976;-72
2022/07/20 13:39:25;;;;;;;;;;;36.70;94.90;;;;;;5012647;28;19925;-72
2022/07/20 13:41:51;;;;;;;;;;;36.70;94.70;;;;;;5010690;28;19933;-71
2022/07/20 13:44:19;;;;;;;;;;;37.40;94.70;;;;;;5012300;28;20348;-72
2022/07/20 13:46:47;;;;;;;;;;;38.40;94.50;;;;;;5012711;28;19987;-72
2022/07/20 13:49:13;;;;;;;;;;;39.40;94.20;;;;;;5012650;28;20368;-72
2022/07/20 13:51:40;;;;;;;;;;;40.00;93.60;;;;;;5012746;28;20397;-72
2022/07/20 13:54:07;;;;;;;;;;;40.00;93.30;;;;;;5010494;28;19991;-72
2022/07/20 13:56:35;;;;;;;;;;;39.80;93.00;;;;;;5020708;28;19932;-72
2022/07/20 13:59:02;;;;;;;;;;;40.10;92.80;;;;;;5006342;28;19926;-73
2022/07/20 14:01:29;;;;;;;;;;;39.80;92.50;;;;;;5005916;28;20400;-72
2022/07/20 14:03:56;;;;;;;;;;;38.80;92.50;;;;;;5010878;28;19929;-72
2022/07/20 14:06:23;;;;;;;;;;;37.30;93.20;;;;;;5009787;28;19926;-72
2022/07/20 14:08:49;;;;;;;;;;;37.20;93.10;;;;;;5000393;28;19932;-74
2022/07/20 14:11:16;;;;;;;;;;;37.20;93.30;;;;;;5013982;28;19940;-72
2022/07/20 14:13:44;;;;;;;;;;;37.00;93.30;;;;;;5012723;28;19979;-72
2022/07/20 14:16:11;;;;;;;;;;;36.70;93.50;;;;;;5012934;28;19979;-72
2022/07/20 14:18:38;;;;;;;;;;;35.70;93.70;;;;;;5012564;28;20490;-72
2022/07/20 14:21:04;;;;;;;;;;;35.30;94.30;;;;;;5007612;28;20016;-72
2022/07/20 14:23:31;;;;;;;;;;;35.10;94.30;;;;;;5010452;28;20005;-72
2022/07/20 14:25:58;;;;;;;;;;;34.90;94.10;;;;;;5008353;28;19929;-72
2022/07/20 14:28:24;;;;;;;;;;;34.90;94.40;;;;;;5012613;28;19929;-72